createdAt,value
2023-12-18T00:00:45.809Z,96684.00
2023-12-18T00:01:45.755Z,96684.00
2023-12-18T00:02:45.759Z,96682.00
2023-12-18T00:03:45.877Z,96684.00
2023-12-18T00:04:45.785Z,96681.00
2023-12-18T00:05:45.789Z,96683.00
2023-12-18T00:06:45.798Z,96682.00
2023-12-18T00:07:45.771Z,96683.00
2023-12-18T00:08:45.794Z,96681.00
2023-12-18T00:09:45.781Z,96682.00
2023-12-18T00:10:45.763Z,96682.00
2023-12-18T00:11:45.800Z,96684.00
2023-12-18T00:12:45.921Z,96680.00
2023-12-18T00:13:45.947Z,96679.00
2023-12-18T00:14:46.014Z,96678.00
2023-12-18T00:15:46.123Z,96679.00
2023-12-18T00:16:46.130Z,96676.00
2023-12-18T00:17:46.483Z,96676.00
2023-12-18T00:18:46.365Z,96673.00
2023-12-18T00:19:46.376Z,96674.00
2023-12-18T00:20:46.401Z,96675.00
2023-12-18T00:21:46.495Z,96672.00
2023-12-18T00:22:46.541Z,96674.00
2023-12-18T00:23:46.634Z,96675.00
2023-12-18T00:24:46.673Z,96675.00
2023-12-18T00:25:46.744Z,96673.00
2023-12-18T00:26:46.813Z,96673.00
2023-12-18T00:27:47.821Z,96671.00
2023-12-18T00:28:46.953Z,96673.00
2023-12-18T00:29:47.055Z,96673.00
2023-12-18T00:30:47.143Z,96671.00
2023-12-18T00:31:47.146Z,96670.00
2023-12-18T00:32:47.242Z,96670.00
2023-12-18T00:33:47.401Z,96672.00
2023-12-18T00:34:47.425Z,96668.00
2023-12-18T00:35:47.438Z,96668.00
2023-12-18T00:36:47.480Z,96668.00
2023-12-18T00:37:47.549Z,96667.00
2023-12-18T00:38:47.639Z,96666.00
2023-12-18T00:39:47.702Z,96665.00
2023-12-18T00:40:47.771Z,96666.00
2023-12-18T00:41:47.828Z,96663.00
2023-12-18T00:42:47.905Z,96664.00
2023-12-18T00:43:49.012Z,96663.00
2023-12-18T00:44:48.071Z,96664.00
2023-12-18T00:45:48.157Z,96665.00
2023-12-18T00:46:48.219Z,96665.00
2023-12-18T00:47:48.343Z,96667.00
2023-12-18T00:48:48.448Z,96667.00
2023-12-18T00:49:48.602Z,96668.00
2023-12-18T00:50:48.532Z,96668.00
2023-12-18T00:51:48.565Z,96667.00
2023-12-18T00:52:48.632Z,96667.00
2023-12-18T00:53:48.709Z,96666.00
2023-12-18T00:54:48.818Z,96666.00
2023-12-18T00:55:48.860Z,96667.00
2023-12-18T00:56:48.933Z,96664.00
2023-12-18T00:57:53.452Z,96664.00
2023-12-18T00:58:49.983Z,96664.00
2023-12-18T00:59:48.979Z,96664.00
2023-12-18T01:00:49.189Z,96663.00
2023-12-18T01:01:49.005Z,96663.00
2023-12-18T01:02:48.988Z,96663.00
2023-12-18T01:03:49.157Z,96664.00
2023-12-18T01:04:49.075Z,96662.00
2023-12-18T01:05:48.995Z,96662.00
2023-12-18T01:06:49.051Z,96661.00
2023-12-18T01:07:49.100Z,96665.00
2023-12-18T01:08:49.145Z,96663.00
2023-12-18T01:09:49.212Z,96664.00
2023-12-18T01:10:49.248Z,96664.00
2023-12-18T01:11:49.317Z,96662.00
2023-12-18T01:12:49.396Z,96664.00
2023-12-18T01:13:49.441Z,96663.00
2023-12-18T01:14:49.481Z,96663.00
2023-12-18T01:15:49.633Z,96664.00
2023-12-18T01:16:49.672Z,96661.00
2023-12-18T01:17:49.973Z,96661.00
2023-12-18T01:18:49.935Z,96663.00
2023-12-18T01:19:49.969Z,96663.00
2023-12-18T01:20:49.959Z,96665.00
2023-12-18T01:21:50.021Z,96669.00
2023-12-18T01:23:01.550Z,96670.00
2023-12-18T01:23:51.084Z,96669.00
2023-12-18T01:24:50.058Z,96670.00
2023-12-18T01:25:50.076Z,96671.00
2023-12-18T01:26:50.062Z,96674.00
2023-12-18T01:27:50.105Z,96672.00
2023-12-18T01:28:50.865Z,96672.00
2023-12-18T01:29:50.063Z,96672.00
2023-12-18T01:30:50.211Z,96671.00
2023-12-18T01:31:50.186Z,96672.00
2023-12-18T01:33:50.370Z,96670.00
2023-12-18T01:34:50.422Z,96670.00
2023-12-18T01:35:50.474Z,96670.00
2023-12-18T01:36:50.542Z,96670.00
2023-12-18T01:37:50.610Z,96669.00
2023-12-18T01:38:50.684Z,96668.00
2023-12-18T01:39:50.763Z,96670.00
2023-12-18T01:40:50.888Z,96671.00
2023-12-18T01:41:50.906Z,96668.00
2023-12-18T01:42:50.968Z,96667.00
2023-12-18T01:43:51.031Z,96668.00
2023-12-18T01:44:51.109Z,96664.00
2023-12-18T01:45:51.170Z,96663.00
2023-12-18T01:46:51.202Z,96661.00
2023-12-18T01:47:51.353Z,96662.00
2023-12-18T01:48:51.503Z,96659.00
2023-12-18T01:49:51.457Z,96657.00
2023-12-18T01:50:51.464Z,96656.00
2023-12-18T01:51:51.546Z,96655.00
2023-12-18T01:52:51.563Z,96655.00
2023-12-18T01:53:51.564Z,96655.00
2023-12-18T01:54:51.559Z,96652.00
2023-12-18T01:55:51.581Z,96650.00
2023-12-18T01:56:51.607Z,96652.00
2023-12-18T01:57:51.755Z,96649.00
2023-12-18T01:58:51.832Z,96646.00
2023-12-18T01:59:51.921Z,96648.00
2023-12-18T02:00:52.003Z,96647.00
2023-12-18T02:01:51.933Z,96647.00
2023-12-18T02:02:52.017Z,96645.00
2023-12-18T02:03:52.144Z,96644.00
2023-12-18T02:04:52.062Z,96645.00
2023-12-18T02:05:52.057Z,96642.00
2023-12-18T02:06:52.181Z,96641.00
2023-12-18T02:07:52.205Z,96640.00
2023-12-18T02:08:52.213Z,96639.00
2023-12-18T02:09:52.277Z,96641.00
2023-12-18T02:10:52.322Z,96639.00
2023-12-18T02:11:52.336Z,96639.00
2023-12-18T02:12:52.375Z,96639.00
2023-12-18T02:13:52.432Z,96640.00
2023-12-18T02:14:52.455Z,96636.00
2023-12-18T02:15:52.547Z,96638.00
2023-12-18T02:16:52.556Z,96638.00
2023-12-18T02:17:52.594Z,96635.00
2023-12-18T02:18:52.639Z,96634.00
2023-12-18T02:19:52.597Z,96635.00
2023-12-18T02:20:52.626Z,96636.00
2023-12-18T02:21:52.659Z,96636.00
2023-12-18T02:22:52.751Z,96633.00
2023-12-18T02:23:52.839Z,96635.00
2023-12-18T02:24:52.872Z,96638.00
2023-12-18T02:25:52.881Z,96636.00
2023-12-18T02:26:52.897Z,96636.00
2023-12-18T02:27:52.927Z,96635.00
2023-12-18T02:28:52.937Z,96634.00
2023-12-18T02:29:52.957Z,96636.00
2023-12-18T02:30:53.114Z,96637.00
2023-12-18T02:31:53.042Z,96636.00
2023-12-18T02:32:53.170Z,96636.00
2023-12-18T02:33:53.346Z,96635.00
2023-12-18T02:34:53.421Z,96633.00
2023-12-18T02:35:53.417Z,96636.00
2023-12-18T02:36:53.500Z,96635.00
2023-12-18T02:37:53.475Z,96635.00
2023-12-18T02:38:53.501Z,96636.00
2023-12-18T02:39:53.542Z,96633.00
2023-12-18T02:40:53.560Z,96634.00
2023-12-18T02:41:53.603Z,96632.00
2023-12-18T02:42:53.754Z,96633.00
2023-12-18T02:43:53.730Z,96631.00
2023-12-18T02:44:53.817Z,96630.00
2023-12-18T02:45:53.911Z,96630.00
2023-12-18T02:46:54.016Z,96630.00
2023-12-18T02:47:54.050Z,96630.00
2023-12-18T02:48:54.088Z,96629.00
2023-12-18T02:49:54.065Z,96630.00
2023-12-18T02:50:54.090Z,96629.00
2023-12-18T02:51:54.113Z,96628.00
2023-12-18T02:52:54.142Z,96629.00
2023-12-18T02:53:54.225Z,96627.00
2023-12-18T02:54:54.326Z,96627.00
2023-12-18T02:55:54.340Z,96625.00
2023-12-18T02:56:54.348Z,96623.00
2023-12-18T02:57:54.364Z,96626.00
2023-12-18T02:58:54.409Z,96625.00
2023-12-18T02:59:54.457Z,96624.00
2023-12-18T03:00:54.541Z,96624.00
2023-12-18T03:01:54.534Z,96621.00
2023-12-18T03:02:54.612Z,96621.00
2023-12-18T03:03:54.660Z,96623.00
2023-12-18T03:04:54.709Z,96619.00
2023-12-18T03:05:54.684Z,96621.00
2023-12-18T03:06:54.709Z,96620.00
2023-12-18T03:07:54.745Z,96622.00
2023-12-18T03:08:54.781Z,96621.00
2023-12-18T03:09:54.810Z,96620.00
2023-12-18T03:10:54.893Z,96618.00
2023-12-18T03:11:54.958Z,96619.00
2023-12-18T03:12:55.074Z,96617.00
2023-12-18T03:13:55.165Z,96617.00
2023-12-18T03:14:55.176Z,96617.00
2023-12-18T03:15:55.216Z,96616.00
2023-12-18T03:16:55.222Z,96614.00
2023-12-18T03:17:55.337Z,96612.00
2023-12-18T03:18:55.378Z,96613.00
2023-12-18T03:19:55.289Z,96614.00
2023-12-18T03:20:55.334Z,96613.00
2023-12-18T03:21:55.364Z,96613.00
2023-12-18T03:22:55.385Z,96613.00
2023-12-18T03:23:55.415Z,96612.00
2023-12-18T03:24:55.468Z,96611.00
2023-12-18T03:25:55.421Z,96612.00
2023-12-18T03:26:55.461Z,96611.00
2023-12-18T03:27:55.553Z,96613.00
2023-12-18T03:28:55.594Z,96613.00
2023-12-18T03:29:55.617Z,96613.00
2023-12-18T03:30:56.054Z,96614.00
2023-12-18T03:31:55.728Z,96615.00
2023-12-18T03:32:55.845Z,96616.00
2023-12-18T03:33:56.023Z,96613.00
2023-12-18T03:34:55.941Z,96616.00
2023-12-18T03:35:55.957Z,96618.00
2023-12-18T03:36:55.962Z,96617.00
2023-12-18T03:37:55.962Z,96618.00
2023-12-18T03:38:55.980Z,96618.00
2023-12-18T03:39:56.051Z,96620.00
2023-12-18T03:40:56.035Z,96621.00
2023-12-18T03:41:56.073Z,96621.00
2023-12-18T03:42:56.053Z,96623.00
2023-12-18T03:43:56.064Z,96625.00
2023-12-18T03:44:56.065Z,96625.00
2023-12-18T03:45:56.139Z,96624.00
2023-12-18T03:46:56.141Z,96625.00
2023-12-18T03:47:56.191Z,96624.00
2023-12-18T03:48:56.183Z,96623.00
2023-12-18T03:49:56.234Z,96625.00
2023-12-18T03:50:56.156Z,96625.00
2023-12-18T03:51:56.283Z,96623.00
2023-12-18T03:52:56.249Z,96624.00
2023-12-18T03:53:56.258Z,96622.00
2023-12-18T03:54:56.264Z,96624.00
2023-12-18T03:55:56.280Z,96624.00
2023-12-18T03:56:56.277Z,96624.00
2023-12-18T03:57:56.436Z,96624.00
2023-12-18T03:58:56.353Z,96624.00
2023-12-18T03:59:56.369Z,96625.00
2023-12-18T04:00:56.493Z,96625.00
2023-12-18T04:01:56.371Z,96626.00
2023-12-18T04:02:56.381Z,96627.00
2023-12-18T04:03:56.529Z,96624.00
2023-12-18T04:04:56.613Z,96624.00
2023-12-18T04:05:56.574Z,96626.00
2023-12-18T04:06:56.558Z,96624.00
2023-12-18T04:07:56.573Z,96622.00
2023-12-18T04:08:56.600Z,96621.00
2023-12-18T04:09:56.624Z,96621.00
2023-12-18T04:10:56.686Z,96618.00
2023-12-18T04:11:56.795Z,96617.00
2023-12-18T04:12:56.883Z,96616.00
2023-12-18T04:13:56.893Z,96616.00
2023-12-18T04:14:56.906Z,96616.00
2023-12-18T04:15:59.764Z,96616.00
2023-12-18T04:16:56.932Z,96613.00
2023-12-18T04:17:56.974Z,96614.00
2023-12-18T04:18:57.058Z,96611.00
2023-12-18T04:19:56.944Z,96614.00
2023-12-18T04:20:56.933Z,96615.00
2023-12-18T04:21:56.924Z,96615.00
2023-12-18T04:22:56.951Z,96615.00
2023-12-18T04:23:56.939Z,96614.00
2023-12-18T04:24:56.976Z,96615.00
2023-12-18T04:25:56.936Z,96609.00
2023-12-18T04:26:56.928Z,96608.00
2023-12-18T04:27:57.021Z,96608.00
2023-12-18T04:28:56.966Z,96611.00
2023-12-18T04:29:56.950Z,96611.00
2023-12-18T04:30:57.011Z,96611.00
2023-12-18T04:31:56.968Z,96613.00
2023-12-18T04:32:57.070Z,96613.00
2023-12-18T04:33:56.987Z,96614.00
2023-12-18T04:34:56.965Z,96613.00
2023-12-18T04:35:56.963Z,96615.00
2023-12-18T04:36:58.743Z,96612.00
2023-12-18T04:37:57.131Z,96613.00
2023-12-18T04:38:57.151Z,96614.00
2023-12-18T04:39:57.171Z,96616.00
2023-12-18T04:40:57.181Z,96615.00
2023-12-18T04:41:57.236Z,96616.00
2023-12-18T04:42:57.287Z,96615.00
2023-12-18T04:43:57.294Z,96615.00
2023-12-18T04:44:57.338Z,96614.00
2023-12-18T04:45:57.354Z,96615.00
2023-12-18T04:46:57.394Z,96614.00
2023-12-18T04:47:57.506Z,96617.00
2023-12-18T04:48:58.045Z,96614.00
2023-12-18T04:49:57.987Z,96615.00
2023-12-18T04:50:57.519Z,96614.00
2023-12-18T04:51:57.620Z,96613.00
2023-12-18T04:52:57.558Z,96614.00
2023-12-18T04:54:04.930Z,96613.00
2023-12-18T04:55:04.886Z,96618.00
2023-12-18T04:56:04.886Z,96618.00
2023-12-18T04:57:04.950Z,96618.00
2023-12-18T04:58:04.910Z,96617.00
2023-12-18T04:59:04.897Z,96620.00
2023-12-18T05:00:04.971Z,96623.00
2023-12-18T05:01:05.145Z,96624.00
2023-12-18T05:02:04.893Z,96625.00
2023-12-18T05:03:05.020Z,96626.00
2023-12-18T05:04:05.033Z,96628.00
2023-12-18T05:05:04.924Z,96626.00
2023-12-18T05:06:04.976Z,96629.00
2023-12-18T05:07:04.923Z,96630.00
2023-12-18T05:08:04.905Z,96629.00
2023-12-18T05:09:05.004Z,96629.00
2023-12-18T05:10:04.920Z,96626.00
2023-12-18T05:11:04.922Z,96629.00
2023-12-18T05:12:04.942Z,96628.00
2023-12-18T05:13:04.925Z,96627.00
2023-12-18T05:14:04.934Z,96628.00
2023-12-18T05:15:06.191Z,96628.00
2023-12-18T05:16:04.973Z,96629.00
2023-12-18T05:17:04.942Z,96626.00
2023-12-18T05:18:05.079Z,96626.00
2023-12-18T05:19:05.114Z,96624.00
2023-12-18T05:20:05.017Z,96627.00
2023-12-18T05:21:05.081Z,96626.00
2023-12-18T05:22:05.122Z,96626.00
2023-12-18T05:23:05.153Z,96627.00
2023-12-18T05:24:05.207Z,96630.00
2023-12-18T05:25:05.254Z,96627.00
2023-12-18T05:26:05.297Z,96627.00
2023-12-18T05:27:05.375Z,96628.00
2023-12-18T05:28:05.364Z,96630.00
2023-12-18T05:29:05.411Z,96631.00
2023-12-18T05:30:05.687Z,96630.00
2023-12-18T05:31:05.594Z,96631.00
2023-12-18T05:32:05.541Z,96632.00
2023-12-18T05:33:05.733Z,96631.00
2023-12-18T05:34:05.775Z,96629.00
2023-12-18T05:35:05.672Z,96631.00
2023-12-18T05:36:05.742Z,96634.00
2023-12-18T05:37:05.750Z,96636.00
2023-12-18T05:38:05.792Z,96639.00
2023-12-18T05:39:06.028Z,96638.00
2023-12-18T05:40:05.884Z,96639.00
2023-12-18T05:41:05.944Z,96637.00
2023-12-18T05:42:06.830Z,96642.00
2023-12-18T05:43:06.036Z,96638.00
2023-12-18T05:44:06.102Z,96642.00
2023-12-18T05:45:06.540Z,96640.00
2023-12-18T05:46:06.209Z,96639.00
2023-12-18T05:47:06.264Z,96636.00
2023-12-18T05:48:06.479Z,96635.00
2023-12-18T05:49:06.531Z,96638.00
2023-12-18T05:50:06.520Z,96639.00
2023-12-18T05:51:06.526Z,96640.00
2023-12-18T05:52:06.590Z,96637.00
2023-12-18T05:53:06.605Z,96638.00
2023-12-18T05:54:06.681Z,96636.00
2023-12-18T05:55:09.214Z,96636.00
2023-12-18T05:56:06.678Z,96638.00
2023-12-18T05:57:06.780Z,96640.00
2023-12-18T05:58:06.692Z,96639.00
2023-12-18T05:59:06.696Z,96640.00
2023-12-18T06:00:06.755Z,96639.00
2023-12-18T06:01:06.761Z,96639.00
2023-12-18T06:02:06.687Z,96639.00
2023-12-18T06:03:06.926Z,96640.00
2023-12-18T06:04:06.807Z,96644.00
2023-12-18T06:05:06.709Z,96643.00
2023-12-18T06:06:06.767Z,96643.00
2023-12-18T06:07:06.760Z,96641.00
2023-12-18T06:08:06.691Z,96643.00
2023-12-18T06:09:06.726Z,96642.00
2023-12-18T06:10:06.711Z,96641.00
2023-12-18T06:11:06.700Z,96641.00
2023-12-18T06:12:06.723Z,96638.00
2023-12-18T06:13:06.712Z,96639.00
2023-12-18T06:14:06.705Z,96636.00
2023-12-18T06:15:06.818Z,96636.00
2023-12-18T06:16:06.717Z,96639.00
2023-12-18T06:17:06.718Z,96637.00
2023-12-18T06:18:06.885Z,96639.00
2023-12-18T06:19:06.793Z,96636.00
2023-12-18T06:20:06.873Z,96637.00
2023-12-18T06:21:06.965Z,96637.00
2023-12-18T06:22:06.772Z,96636.00
2023-12-18T06:23:06.786Z,96637.00
2023-12-18T06:24:06.818Z,96637.00
2023-12-18T06:25:06.735Z,96639.00
2023-12-18T06:26:06.732Z,96640.00
2023-12-18T06:27:06.935Z,96642.00
2023-12-18T06:28:06.739Z,96641.00
2023-12-18T06:29:06.740Z,96640.00
2023-12-18T06:30:06.801Z,96645.00
2023-12-18T06:31:06.826Z,96646.00
2023-12-18T06:32:06.819Z,96649.00
2023-12-18T06:33:06.888Z,96648.00
2023-12-18T06:34:06.923Z,96647.00
2023-12-18T06:35:06.782Z,96646.00
2023-12-18T06:36:06.778Z,96646.00
2023-12-18T06:37:06.797Z,96645.00
2023-12-18T06:38:06.841Z,96648.00
2023-12-18T06:39:06.832Z,96646.00
2023-12-18T06:40:07.047Z,96643.00
2023-12-18T06:41:06.767Z,96646.00
2023-12-18T06:42:06.811Z,96645.00
2023-12-18T06:43:06.755Z,96644.00
2023-12-18T06:44:06.769Z,96647.00
2023-12-18T06:45:07.069Z,96646.00
2023-12-18T06:46:06.766Z,96646.00
2023-12-18T06:47:06.766Z,96649.00
2023-12-18T06:48:07.007Z,96648.00
2023-12-18T06:49:06.851Z,96649.00
2023-12-18T06:50:07.040Z,96651.00
2023-12-18T06:51:06.926Z,96652.00
2023-12-18T06:52:06.769Z,96655.00
2023-12-18T06:53:06.799Z,96655.00
2023-12-18T06:54:06.823Z,96655.00
2023-12-18T06:55:06.841Z,96655.00
2023-12-18T06:56:06.886Z,96658.00
2023-12-18T06:57:06.807Z,96655.00
2023-12-18T06:58:06.849Z,96657.00
2023-12-18T06:59:06.804Z,96656.00
2023-12-18T07:00:07.160Z,96656.00
2023-12-18T07:01:07.532Z,96655.00
2023-12-18T07:02:07.149Z,96657.00
2023-12-18T07:03:07.082Z,96656.00
2023-12-18T07:04:07.161Z,96658.00
2023-12-18T07:05:07.115Z,96658.00
2023-12-18T07:06:07.630Z,96658.00
2023-12-18T07:07:07.109Z,96659.00
2023-12-18T07:08:07.179Z,96661.00
2023-12-18T07:09:07.256Z,96664.00
2023-12-18T07:10:07.361Z,96663.00
2023-12-18T07:11:07.555Z,96662.00
2023-12-18T07:12:07.308Z,96662.00
2023-12-18T07:13:07.340Z,96659.00
2023-12-18T07:14:07.328Z,96672.00
2023-12-18T07:15:07.471Z,96662.00
2023-12-18T07:16:07.394Z,96660.00
2023-12-18T07:17:07.439Z,96662.00
2023-12-18T07:18:07.691Z,96662.00
2023-12-18T07:19:07.582Z,96662.00
2023-12-18T07:20:07.557Z,96663.00
2023-12-18T07:21:07.670Z,96661.00
2023-12-18T07:22:07.577Z,96661.00
2023-12-18T07:23:07.641Z,96662.00
2023-12-18T07:24:07.682Z,96663.00
2023-12-18T07:25:07.651Z,96665.00
2023-12-18T07:26:07.660Z,96663.00
2023-12-18T07:27:07.725Z,96665.00
2023-12-18T07:28:07.697Z,96663.00
2023-12-18T07:29:07.705Z,96661.00
2023-12-18T07:30:09.668Z,96664.00
2023-12-18T07:31:07.799Z,96664.00
2023-12-18T07:32:07.785Z,96664.00
2023-12-18T07:33:08.016Z,96665.00
2023-12-18T07:34:08.106Z,96666.00
2023-12-18T07:35:08.130Z,96666.00
2023-12-18T07:36:07.989Z,96661.00
2023-12-18T07:37:08.011Z,96665.00
2023-12-18T07:38:08.036Z,96659.00
2023-12-18T07:39:08.116Z,96657.00
2023-12-18T07:40:08.572Z,96657.00
2023-12-18T07:41:08.140Z,96653.00
2023-12-18T07:42:08.208Z,96650.00
2023-12-18T07:43:08.236Z,96655.00
2023-12-18T07:44:08.271Z,96653.00
2023-12-18T07:45:08.674Z,96654.00
2023-12-18T07:46:08.399Z,96656.00
2023-12-18T07:47:08.486Z,96657.00
2023-12-18T07:48:08.726Z,96660.00
2023-12-18T07:49:08.842Z,96660.00
2023-12-18T07:50:09.092Z,96658.00
2023-12-18T07:51:08.750Z,96656.00
2023-12-18T07:52:08.705Z,96656.00
2023-12-18T07:53:08.814Z,96656.00
2023-12-18T07:54:08.747Z,96659.00
2023-12-18T07:55:09.072Z,96660.00
2023-12-18T07:56:08.776Z,96659.00
2023-12-18T07:57:08.898Z,96659.00
2023-12-18T07:58:08.783Z,96660.00
2023-12-18T07:59:08.804Z,96658.00
2023-12-18T08:00:08.885Z,96660.00
2023-12-18T08:01:08.922Z,96661.00
2023-12-18T08:02:08.934Z,96662.00
2023-12-18T08:03:08.927Z,96662.00
2023-12-18T08:04:08.971Z,96662.00
2023-12-18T08:05:08.976Z,96662.00
2023-12-18T08:06:08.938Z,96662.00
2023-12-18T08:07:08.957Z,96661.00
2023-12-18T08:08:08.980Z,96661.00
2023-12-18T08:09:09.060Z,96664.00
2023-12-18T08:10:09.096Z,96663.00
2023-12-18T08:11:09.047Z,96665.00
2023-12-18T08:12:09.165Z,96665.00
2023-12-18T08:13:09.096Z,96664.00
2023-12-18T08:14:09.099Z,96662.00
2023-12-18T08:15:09.657Z,96661.00
2023-12-18T08:16:09.141Z,96662.00
2023-12-18T08:17:09.168Z,96661.00
2023-12-18T08:18:09.337Z,96660.00
2023-12-18T08:19:09.324Z,96659.00
2023-12-18T08:20:09.624Z,96662.00
2023-12-18T08:21:09.244Z,96666.00
2023-12-18T08:22:09.256Z,96666.00
2023-12-18T08:23:09.282Z,96669.00
2023-12-18T08:24:09.327Z,96671.00
2023-12-18T08:25:09.633Z,96670.00
2023-12-18T08:26:09.477Z,96667.00
2023-12-18T08:27:09.547Z,96669.00
2023-12-18T08:28:09.724Z,96668.00
2023-12-18T08:29:10.301Z,96668.00
2023-12-18T08:30:10.339Z,96666.00
2023-12-18T08:31:09.719Z,96667.00
2023-12-18T08:32:09.722Z,96663.00
2023-12-18T08:33:10.067Z,96664.00
2023-12-18T08:34:09.858Z,96660.00
2023-12-18T08:35:10.112Z,96660.00
2023-12-18T08:36:09.961Z,96663.00
2023-12-18T08:37:09.891Z,96660.00
2023-12-18T08:38:09.940Z,96660.00
2023-12-18T08:39:12.658Z,96662.00
2023-12-18T08:40:10.118Z,96658.00
2023-12-18T08:41:09.882Z,96660.00
2023-12-18T08:42:09.929Z,96658.00
2023-12-18T08:43:09.895Z,96658.00
2023-12-18T08:44:09.892Z,96656.00
2023-12-18T08:45:10.132Z,96654.00
2023-12-18T08:46:09.902Z,96656.00
2023-12-18T08:47:09.881Z,96655.00
2023-12-18T08:48:10.042Z,96655.00
2023-12-18T08:49:09.988Z,96656.00
2023-12-18T08:50:10.099Z,96655.00
2023-12-18T08:51:09.923Z,96657.00
2023-12-18T08:52:09.894Z,96654.00
2023-12-18T08:53:09.917Z,96655.00
2023-12-18T08:54:09.950Z,96655.00
2023-12-18T08:55:09.925Z,96653.00
2023-12-18T08:56:09.967Z,96652.00
2023-12-18T08:57:09.968Z,96654.00
2023-12-18T08:58:09.964Z,96652.00
2023-12-18T08:59:09.891Z,96649.00
2023-12-18T09:00:09.916Z,96649.00
2023-12-18T09:01:09.994Z,96650.00
2023-12-18T09:02:09.908Z,96646.00
2023-12-18T09:03:10.081Z,96645.00
2023-12-18T09:04:09.949Z,96643.00
2023-12-18T09:05:10.174Z,96645.00
2023-12-18T09:06:09.983Z,96644.00
2023-12-18T09:07:09.949Z,96643.00
2023-12-18T09:08:10.088Z,96642.00
2023-12-18T09:09:10.304Z,96641.00
2023-12-18T09:10:10.131Z,96640.00
2023-12-18T09:11:09.915Z,96642.00
2023-12-18T09:12:09.971Z,96641.00
2023-12-18T09:13:09.945Z,96640.00
2023-12-18T09:14:09.914Z,96641.00
2023-12-18T09:15:09.937Z,96641.00
2023-12-18T09:16:09.916Z,96639.00
2023-12-18T09:17:09.937Z,96636.00
2023-12-18T09:18:10.113Z,96633.00
2023-12-18T09:19:10.658Z,96636.00
2023-12-18T09:20:10.149Z,96635.00
2023-12-18T09:21:09.946Z,96634.00
2023-12-18T09:22:09.921Z,96631.00
2023-12-18T09:23:10.041Z,96634.00
2023-12-18T09:24:09.961Z,96632.00
2023-12-18T09:25:09.936Z,96633.00
2023-12-18T09:26:10.119Z,96636.00
2023-12-18T09:27:09.936Z,96630.00
2023-12-18T09:28:09.944Z,96630.00
2023-12-18T09:29:09.963Z,96628.00
2023-12-18T09:30:11.740Z,96626.00
2023-12-18T09:31:10.018Z,96626.00
2023-12-18T09:32:10.028Z,96627.00
2023-12-18T09:33:10.204Z,96624.00
2023-12-18T09:34:10.212Z,96625.00
2023-12-18T09:35:10.221Z,96622.00
2023-12-18T09:36:10.158Z,96619.00
2023-12-18T09:37:10.140Z,96618.00
2023-12-18T09:38:10.151Z,96615.00
2023-12-18T09:39:10.193Z,96613.00
2023-12-18T09:40:10.625Z,96610.00
2023-12-18T09:41:10.230Z,96607.00
2023-12-18T09:42:10.250Z,96604.00
2023-12-18T09:43:10.230Z,96605.00
2023-12-18T09:44:10.233Z,96606.00
2023-12-18T09:45:10.687Z,96602.00
2023-12-18T09:46:10.260Z,96598.00
2023-12-18T09:47:10.266Z,96596.00
2023-12-18T09:48:10.420Z,96598.00
2023-12-18T09:49:10.378Z,96594.00
2023-12-18T09:50:10.629Z,96589.00
2023-12-18T09:51:10.447Z,96588.00
2023-12-18T09:52:10.411Z,96587.00
2023-12-18T09:53:10.440Z,96585.00
2023-12-18T09:54:10.489Z,96584.00
2023-12-18T09:55:10.481Z,96581.00
2023-12-18T09:56:10.508Z,96581.00
2023-12-18T09:57:10.578Z,96580.00
2023-12-18T09:58:10.587Z,96578.00
2023-12-18T09:59:10.617Z,96576.00
2023-12-18T10:00:11.211Z,96575.00
2023-12-18T10:01:10.773Z,96576.00
2023-12-18T10:02:10.719Z,96575.00
2023-12-18T10:03:10.876Z,96569.00
2023-12-18T10:04:11.030Z,96569.00
2023-12-18T10:05:10.882Z,96567.00
2023-12-18T10:06:10.938Z,96565.00
2023-12-18T10:07:10.883Z,96562.00
2023-12-18T10:08:11.003Z,96559.00
2023-12-18T10:09:11.002Z,96559.00
2023-12-18T10:10:11.006Z,96558.00
2023-12-18T10:11:11.021Z,96556.00
2023-12-18T10:12:11.166Z,96555.00
2023-12-18T10:13:11.136Z,96553.00
2023-12-18T10:14:11.160Z,96551.00
2023-12-18T10:15:11.279Z,96548.00
2023-12-18T10:16:11.292Z,96546.00
2023-12-18T10:17:11.255Z,96545.00
2023-12-18T10:18:11.380Z,96544.00
2023-12-18T10:19:11.410Z,96539.00
2023-12-18T10:20:11.468Z,96538.00
2023-12-18T10:21:11.412Z,96535.00
2023-12-18T10:22:11.421Z,96534.00
2023-12-18T10:23:11.438Z,96536.00
2023-12-18T10:24:11.537Z,96533.00
2023-12-18T10:25:11.485Z,96532.00
2023-12-18T10:26:11.522Z,96527.00
2023-12-18T10:27:11.563Z,96528.00
2023-12-18T10:28:11.573Z,96528.00
2023-12-18T10:29:11.554Z,96527.00
2023-12-18T10:30:11.721Z,96517.00
2023-12-18T10:31:11.639Z,96513.00
2023-12-18T10:32:11.627Z,96510.00
2023-12-18T10:33:12.397Z,96515.00
2023-12-18T10:34:11.858Z,96510.00
2023-12-18T10:35:12.145Z,96506.00
2023-12-18T10:36:13.455Z,96506.00
2023-12-18T10:37:11.985Z,96507.00
2023-12-18T10:38:12.048Z,96504.00
2023-12-18T10:39:12.153Z,96504.00
2023-12-18T10:40:12.690Z,96504.00
2023-12-18T10:41:12.212Z,96503.00
2023-12-18T10:42:12.255Z,96501.00
2023-12-18T10:43:12.315Z,96500.00
2023-12-18T10:44:12.350Z,96500.00
2023-12-18T10:45:13.162Z,96499.00
2023-12-18T10:46:12.390Z,96496.00
2023-12-18T10:47:12.872Z,96498.00
2023-12-18T10:48:12.496Z,96492.00
2023-12-18T10:49:12.588Z,96492.00
2023-12-18T10:50:12.669Z,96491.00
2023-12-18T10:51:12.559Z,96492.00
2023-12-18T10:52:12.706Z,96491.00
2023-12-18T10:53:12.617Z,96489.00
2023-12-18T10:54:12.655Z,96489.00
2023-12-18T10:55:12.651Z,96492.00
2023-12-18T10:56:12.650Z,96486.00
2023-12-18T10:57:12.768Z,96487.00
2023-12-18T10:58:12.698Z,96485.00
2023-12-18T10:59:12.761Z,96485.00
2023-12-18T11:00:13.178Z,96482.00
2023-12-18T11:01:12.840Z,96480.00
2023-12-18T11:02:12.718Z,96479.00
2023-12-18T11:03:12.852Z,96475.00
2023-12-18T11:04:12.830Z,96476.00
2023-12-18T11:05:13.180Z,96471.00
2023-12-18T11:06:12.894Z,96472.00
2023-12-18T11:07:12.988Z,96467.00
2023-12-18T11:08:12.841Z,96469.00
2023-12-18T11:09:12.868Z,96465.00
2023-12-18T11:10:13.412Z,96464.00
2023-12-18T11:11:12.880Z,96464.00
2023-12-18T11:12:12.944Z,96462.00
2023-12-18T11:13:12.917Z,96459.00
2023-12-18T11:14:13.678Z,96459.00
2023-12-18T11:15:13.197Z,96457.00
2023-12-18T11:16:13.051Z,96456.00
2023-12-18T11:17:13.078Z,96457.00
2023-12-18T11:18:13.392Z,96456.00
2023-12-18T11:19:19.804Z,96452.00
2023-12-18T11:20:14.249Z,96451.00
2023-12-18T11:21:13.127Z,96451.00
2023-12-18T11:22:13.158Z,96449.00
2023-12-18T11:23:13.131Z,96447.00
2023-12-18T11:24:13.139Z,96447.00
2023-12-18T11:25:13.158Z,96444.00
2023-12-18T11:26:13.177Z,96442.00
2023-12-18T11:27:13.162Z,96440.00
2023-12-18T11:28:13.153Z,96440.00
2023-12-18T11:29:13.191Z,96437.00
2023-12-18T11:30:13.375Z,96437.00
2023-12-18T11:31:13.366Z,96433.00
2023-12-18T11:32:13.368Z,96434.00
2023-12-18T11:33:13.485Z,96431.00
2023-12-18T11:34:13.424Z,96428.00
2023-12-18T11:35:13.560Z,96427.00
2023-12-18T11:36:13.579Z,96426.00
2023-12-18T11:37:13.328Z,96426.00
2023-12-18T11:38:13.346Z,96421.00
2023-12-18T11:39:13.373Z,96422.00
2023-12-18T11:40:14.197Z,96420.00
2023-12-18T11:41:13.376Z,96417.00
2023-12-18T11:42:13.416Z,96418.00
2023-12-18T11:43:13.415Z,96417.00
2023-12-18T11:44:13.429Z,96413.00
2023-12-18T11:45:13.769Z,96411.00
2023-12-18T11:46:17.653Z,96407.00